sensor_id;sensor_type;location;lat;lon;timestamp;pressure;altitude;pressure_sealevel;temperature;humidity
14253;BME280;7210;51.502;10.722;2023-04-01T00:01:50;97680.03;;;9.03;100.00
14253;BME280;7210;51.502;10.722;2023-04-01T00:04:17;97672.13;;;9.03;100.00
14253;BME280;7210;51.502;10.722;2023-04-01T00:06:46;97676.84;;;9.01;100.00
14253;BME280;7210;51.502;10.722;2023-04-01T00:09:17;97664.72;;;9.00;100.00
14253;BME280;7210;51.502;10.722;2023-04-01T00:11:45;97667.38;;;9.05;100.00
14253;BME280;7210;51.502;10.722;2023-04-01T00:14:12;97665.50;;;9.06;100.00
14253;BME280;7210;51.502;10.722;2023-04-01T00:16:41;97665.50;;;9.06;100.00
14253;BME280;7210;51.502;10.722;2023-04-01T00:19:08;97657.59;;;9.06;100.00
14253;BME280;7210;51.502;10.722;2023-04-01T00:21:35;97662.38;;;9.09;100.00
14253;BME280;7210;51.502;10.722;2023-04-01T00:24:03;97654.72;;;9.12;100.00
14253;BME280;7210;51.502;10.722;2023-04-01T00:26:30;97643.63;;;9.10;100.00
14253;BME280;7210;51.502;10.722;2023-04-01T00:28:58;97633.88;;;9.06;100.00
14253;BME280;7210;51.502;10.722;2023-04-01T00:31:26;97643.66;;;9.15;100.00
14253;BME280;7210;51.502;10.722;2023-04-01T00:33:55;97637.59;;;9.15;100.00
14253;BME280;7210;51.502;10.722;2023-04-01T00:36:23;97627.31;;;9.13;100.00
14253;BME280;7210;51.502;10.722;2023-04-01T00:38:51;97625.72;;;9.12;100.00
14253;BME280;7210;51.502;10.722;2023-04-01T00:41:19;97620.97;;;9.09;100.00
14253;BME280;7210;51.502;10.722;2023-04-01T00:43:49;97618.88;;;9.06;100.00
14253;BME280;7210;51.502;10.722;2023-04-01T00:46:17;97614.94;;;9.09;100.00
14253;BME280;7210;51.502;10.722;2023-04-01T00:48:50;97611.78;;;9.07;100.00
14253;BME280;7210;51.502;10.722;2023-04-01T00:51:24;97614.66;;;9.05;100.00
14253;BME280;7210;51.502;10.722;2023-04-01T00:53:56;97610.16;;;9.06;100.00
14253;BME280;7210;51.502;10.722;2023-04-01T00:56:27;97599.66;;;9.01;100.00
14253;BME280;7210;51.502;10.722;2023-04-01T00:59:00;97605.69;;;9.06;100.00
14253;BME280;7210;51.502;10.722;2023-04-01T01:01:30;97608.34;;;9.01;100.00
14253;BME280;7210;51.502;10.722;2023-04-01T01:03:57;97600.44;;;9.06;100.00
14253;BME280;7210;51.502;10.722;2023-04-01T01:06:40;97609.91;;;9.07;100.00
14253;BME280;7210;51.502;10.722;2023-04-01T01:09:33;97603.59;;;9.08;100.00
14253;BME280;7210;51.502;10.722;2023-04-01T01:12:11;97598.84;;;9.05;100.00
14253;BME280;7210;51.502;10.722;2023-04-01T01:14:54;97599.91;;;9.04;100.00
14253;BME280;7210;51.502;10.722;2023-04-01T01:17:35;97585.16;;;9.03;100.00
14253;BME280;7210;51.502;10.722;2023-04-01T01:20:47;97587.25;;;9.01;100.00
14253;BME280;7210;51.502;10.722;2023-04-01T01:23:57;97590.94;;;9.00;100.00
14253;BME280;7210;51.502;10.722;2023-04-01T01:26:55;97592.53;;;9.01;100.00
14253;BME280;7210;51.502;10.722;2023-04-01T01:32:58;97587.78;;;8.98;100.00
14253;BME280;7210;51.502;10.722;2023-04-01T01:35:35;97592.81;;;9.00;100.00
14253;BME280;7210;51.502;10.722;2023-04-01T01:38:15;97581.22;;;9.01;100.00
14253;BME280;7210;51.502;10.722;2023-04-01T01:40:52;97588.81;;;9.02;100.00
14253;BME280;7210;51.502;10.722;2023-04-01T01:43:26;97578.28;;;9.02;100.00
14253;BME280;7210;51.502;10.722;2023-04-01T01:46:07;97577.00;;;9.00;100.00
14253;BME280;7210;51.502;10.722;2023-04-01T01:48:37;97578.81;;;8.99;100.00
14253;BME280;7210;51.502;10.722;2023-04-01T01:51:08;97582.53;;;8.98;100.00
14253;BME280;7210;51.502;10.722;2023-04-01T01:53:36;97583.84;;;8.96;100.00
14253;BME280;7210;51.502;10.722;2023-04-01T01:56:05;97583.06;;;8.95;100.00
14253;BME280;7210;51.502;10.722;2023-04-01T01:58:44;97587.00;;;8.98;100.00
14253;BME280;7210;51.502;10.722;2023-04-01T02:01:20;97591.47;;;8.97;100.00
14253;BME280;7210;51.502;10.722;2023-04-01T02:03:52;97578.06;;;8.99;100.00
14253;BME280;7210;51.502;10.722;2023-04-01T02:06:23;97593.06;;;9.03;100.00
14253;BME280;7210;51.502;10.722;2023-04-01T02:08:56;97586.47;;;9.01;100.00
14253;BME280;7210;51.502;10.722;2023-04-01T02:14:24;97570.91;;;9.04;100.00
14253;BME280;7210;51.502;10.722;2023-04-01T02:16:57;97579.88;;;9.13;100.00
14253;BME280;7210;51.502;10.722;2023-04-01T02:19:29;97577.75;;;9.10;100.00
14253;BME280;7210;51.502;10.722;2023-04-01T02:22:03;97569.84;;;9.10;100.00
14253;BME280;7210;51.502;10.722;2023-04-01T02:24:35;97556.16;;;8.98;100.00
14253;BME280;7210;51.502;10.722;2023-04-01T02:27:03;97568.81;;;9.06;100.00
14253;BME280;7210;51.502;10.722;2023-04-01T02:29:32;97565.38;;;9.11;100.00
14253;BME280;7210;51.502;10.722;2023-04-01T02:31:59;97563.78;;;9.10;100.00
14253;BME280;7210;51.502;10.722;2023-04-01T02:34:27;97561.41;;;9.08;100.00
14253;BME280;7210;51.502;10.722;2023-04-01T02:36:56;97566.16;;;9.06;100.00
14253;BME280;7210;51.502;10.722;2023-04-01T02:39:25;97568.56;;;9.08;100.00
14253;BME280;7210;51.502;10.722;2023-04-01T02:41:53;97557.75;;;8.99;100.00
14253;BME280;7210;51.502;10.722;2023-04-01T02:44:20;97570.38;;;9.02;100.00
14253;BME280;7210;51.502;10.722;2023-04-01T02:46:48;97563.03;;;9.04;100.00
14253;BME280;7210;51.502;10.722;2023-04-01T02:49:15;97570.38;;;9.02;100.00
14253;BME280;7210;51.502;10.722;2023-04-01T02:51:48;97570.41;;;8.97;100.00
14253;BME280;7210;51.502;10.722;2023-04-01T02:54:15;97574.63;;;8.93;100.00
14253;BME280;7210;51.502;10.722;2023-04-01T02:56:44;97570.94;;;8.89;100.00
14253;BME280;7210;51.502;10.722;2023-04-01T02:59:12;97577.78;;;8.85;100.00
14253;BME280;7210;51.502;10.722;2023-04-01T03:01:39;97582.53;;;8.83;100.00
14253;BME280;7210;51.502;10.722;2023-04-01T03:04:06;97578.06;;;8.79;100.00
14253;BME280;7210;51.502;10.722;2023-04-01T03:06:34;97593.06;;;8.78;100.00
14253;BME280;7210;51.502;10.722;2023-04-01T03:09:01;97600.16;;;8.83;100.00
14253;BME280;7210;51.502;10.722;2023-04-01T03:11:29;97607.31;;;8.82;100.00
14253;BME280;7210;51.502;10.722;2023-04-01T03:13:57;97607.56;;;8.81;100.00
14253;BME280;7210;51.502;10.722;2023-04-01T03:16:25;97615.75;;;8.79;100.00
14253;BME280;7210;51.502;10.722;2023-04-01T03:18:52;97623.09;;;8.77;100.00
14253;BME280;7210;51.502;10.722;2023-04-01T03:21:23;97618.38;;;8.74;100.00
14253;BME280;7210;51.502;10.722;2023-04-01T03:23:51;97627.31;;;8.73;100.00
14253;BME280;7210;51.502;10.722;2023-04-01T03:26:18;97635.22;;;8.73;100.00
14253;BME280;7210;51.502;10.722;2023-04-01T03:28:45;97635.22;;;8.73;100.00
14253;BME280;7210;51.502;10.722;2023-04-01T03:31:14;97635.75;;;8.75;100.00
14253;BME280;7210;51.502;10.722;2023-04-01T03:33:48;97643.91;;;8.74;100.00
14253;BME280;7210;51.502;10.722;2023-04-01T03:36:16;97643.13;;;8.73;100.00
14253;BME280;7210;51.502;10.722;2023-04-01T03:38:44;97657.34;;;8.72;100.00
14253;BME280;7210;51.502;10.722;2023-04-01T03:41:17;97650.22;;;8.73;100.00
14253;BME280;7210;51.502;10.722;2023-04-01T03:43:44;97658.94;;;8.73;100.00
14253;BME280;7210;51.502;10.722;2023-04-01T03:46:19;97664.47;;;8.72;100.00
14253;BME280;7210;51.502;10.722;2023-04-01T03:48:46;97666.28;;;8.71;100.00
14253;BME280;7210;51.502;10.722;2023-04-01T03:51:14;97665.25;;;8.72;100.00
14253;BME280;7210;51.502;10.722;2023-04-01T03:53:41;97679.22;;;8.73;100.00
14253;BME280;7210;51.502;10.722;2023-04-01T03:56:09;97671.56;;;8.71;100.00
14253;BME280;7210;51.502;10.722;2023-04-01T03:58:37;97681.06;;;8.72;100.00
14253;BME280;7210;51.502;10.722;2023-04-01T04:01:15;97682.09;;;8.71;100.00
14253;BME280;7210;51.502;10.722;2023-04-01T04:03:44;97686.59;;;8.71;100.00
14253;BME280;7210;51.502;10.722;2023-04-01T04:06:13;97680.50;;;8.70;100.00
14253;BME280;7210;51.502;10.722;2023-04-01T04:08:41;97681.31;;;8.71;100.00
14253;BME280;7210;51.502;10.722;2023-04-01T04:11:08;97690.00;;;8.71;100.00
14253;BME280;7210;51.502;10.722;2023-04-01T04:13:39;97685.00;;;8.70;100.00
14253;BME280;7210;51.502;10.722;2023-04-01T04:16:07;97686.06;;;8.69;100.00
14253;BME280;7210;51.502;10.722;2023-04-01T04:18:40;97691.59;;;8.67;100.00
14253;BME280;7210;51.502;10.722;2023-04-01T04:21:12;97690.00;;;8.66;100.00
14253;BME280;7210;51.502;10.722;2023-04-01T04:23:41;97691.59;;;8.67;100.00
14253;BME280;7210;51.502;10.722;2023-04-01T04:26:12;97687.38;;;8.66;100.00
14253;BME280;7210;51.502;10.722;2023-04-01T04:28:40;97686.31;;;8.67;100.00
14253;BME280;7210;51.502;10.722;2023-04-01T04:31:07;97687.13;;;8.68;100.00
14253;BME280;7210;51.502;10.722;2023-04-01T04:33:36;97681.31;;;8.66;100.00
14253;BME280;7210;51.502;10.722;2023-04-01T04:36:05;97681.84;;;8.68;100.00
14253;BME280;7210;51.502;10.722;2023-04-01T04:38:33;97681.06;;;8.67;100.00
14253;BME280;7210;51.502;10.722;2023-04-01T04:41:00;97687.13;;;8.68;100.00
14253;BME280;7210;51.502;10.722;2023-04-01T04:43:28;97687.38;;;8.66;100.00
14253;BME280;7210;51.502;10.722;2023-04-01T04:45:56;97688.44;;;8.65;100.00
14253;BME280;7210;51.502;10.722;2023-04-01T04:48:23;97684.22;;;8.64;100.00
14253;BME280;7210;51.502;10.722;2023-04-01T04:50:51;97681.06;;;8.67;100.00
14253;BME280;7210;51.502;10.722;2023-04-01T04:53:22;97686.31;;;8.67;100.00
14253;BME280;7210;51.502;10.722;2023-04-01T04:55:52;97687.38;;;8.66;100.00
14253;BME280;7210;51.502;10.722;2023-04-01T04:58:43;97690.00;;;8.66;100.00
14253;BME280;7210;51.502;10.722;2023-04-01T05:01:17;97684.75;;;8.66;100.00
14253;BME280;7210;51.502;10.722;2023-04-01T05:03:45;97687.38;;;8.66;100.00
14253;BME280;7210;51.502;10.722;2023-04-01T05:06:16;97680.25;;;8.67;100.00
14253;BME280;7210;51.502;10.722;2023-04-01T05:08:44;97683.94;;;8.71;100.00
14253;BME280;7210;51.502;10.722;2023-04-01T05:11:18;97676.81;;;8.71;100.00
14253;BME280;7210;51.502;10.722;2023-04-01T05:13:46;97674.19;;;8.71;100.00
14253;BME280;7210;51.502;10.722;2023-04-01T05:16:17;97682.09;;;8.71;100.00
14253;BME280;7210;51.502;10.722;2023-04-01T05:18:45;97672.34;;;8.72;100.00
14253;BME280;7210;51.502;10.722;2023-04-01T05:21:13;97673.44;;;8.76;100.00
14253;BME280;7210;51.502;10.722;2023-04-01T05:23:41;97669.75;;;8.77;100.00
14253;BME280;7210;51.502;10.722;2023-04-01T05:26:13;97664.47;;;8.77;100.00
14253;BME280;7210;51.502;10.722;2023-04-01T05:28:42;97666.31;;;8.81;100.00
14253;BME280;7210;51.502;10.722;2023-04-01T05:31:10;97661.56;;;8.83;100.00
14253;BME280;7210;51.502;10.722;2023-04-01T05:33:39;97659.19;;;8.82;100.00
14253;BME280;7210;51.502;10.722;2023-04-01T05:36:09;97656.81;;;8.85;100.00
14253;BME280;7210;51.502;10.722;2023-04-01T05:38:37;97658.16;;;8.88;100.00
14253;BME280;7210;51.502;10.722;2023-04-01T05:41:09;97648.69;;;8.92;100.00
14253;BME280;7210;51.502;10.722;2023-04-01T05:43:42;97644.19;;;8.97;100.00
14253;BME280;7210;51.502;10.722;2023-04-01T05:46:28;97640.75;;;8.97;100.00
14253;BME280;7210;51.502;10.722;2023-04-01T05:49:11;97639.69;;;8.98;100.00
14253;BME280;7210;51.502;10.722;2023-04-01T05:51:38;97638.91;;;9.07;100.00
14253;BME280;7210;51.502;10.722;2023-04-01T05:54:08;97635.50;;;9.07;100.00
14253;BME280;7210;51.502;10.722;2023-04-01T05:56:36;97635.72;;;9.10;100.00
14253;BME280;7210;51.502;10.722;2023-04-01T05:59:05;97643.13;;;9.13;100.00
14253;BME280;7210;51.502;10.722;2023-04-01T06:01:32;97641.53;;;9.22;100.00
14253;BME280;7210;51.502;10.722;2023-04-01T06:04:00;97648.13;;;9.25;100.00
14253;BME280;7210;51.502;10.722;2023-04-01T06:06:29;97639.94;;;9.31;100.00
14253;BME280;7210;51.502;10.722;2023-04-01T06:09:14;97652.84;;;9.38;100.00
14253;BME280;7210;51.502;10.722;2023-04-01T06:12:16;97650.72;;;9.45;100.00
14253;BME280;7210;51.502;10.722;2023-04-01T06:15:10;97657.31;;;9.52;100.00
14253;BME280;7210;51.502;10.722;2023-04-01T06:18:03;97655.69;;;9.61;100.00
14253;BME280;7210;51.502;10.722;2023-04-01T06:20:44;97652.50;;;9.69;100.00
14253;BME280;7210;51.502;10.722;2023-04-01T06:23:34;97657.75;;;9.79;100.00
14253;BME280;7210;51.502;10.722;2023-04-01T06:26:24;97659.84;;;9.87;100.00
14253;BME280;7210;51.502;10.722;2023-04-01T06:29:28;97659.25;;;10.10;100.00
14253;BME280;7210;51.502;10.722;2023-04-01T06:32:22;97666.59;;;10.23;100.00
14253;BME280;7210;51.502;10.722;2023-04-01T06:38:38;97652.97;;;10.55;100.00
14253;BME280;7210;51.502;10.722;2023-04-01T06:41:36;97652.13;;;10.59;100.00
14253;BME280;7210;51.502;10.722;2023-04-01T06:44:17;97647.34;;;10.66;100.00
14253;BME280;7210;51.502;10.722;2023-04-01T06:47:28;97639.44;;;10.61;100.00
14253;BME280;7210;51.502;10.722;2023-04-01T06:50:24;97627.28;;;10.60;100.00
14253;BME280;7210;51.502;10.722;2023-04-01T06:53:21;97625.06;;;10.72;100.00
14253;BME280;7210;51.502;10.722;2023-04-01T06:56:15;97628.84;;;10.61;100.00
14253;BME280;7210;51.502;10.722;2023-04-01T06:59:17;97623.56;;;10.61;100.00
14253;BME280;7210;51.502;10.722;2023-04-01T07:01:52;97623.06;;;10.59;100.00
14253;BME280;7210;51.502;10.722;2023-04-01T07:04:26;97626.25;;;10.56;100.00
14253;BME280;7210;51.502;10.722;2023-04-01T07:07:01;97630.44;;;10.62;100.00
14253;BME280;7210;51.502;10.722;2023-04-01T07:09:35;97635.63;;;10.72;100.00
14253;BME280;7210;51.502;10.722;2023-04-01T07:12:33;97628.84;;;10.66;100.00
14253;BME280;7210;51.502;10.722;2023-04-01T07:15:25;97639.34;;;10.71;100.00
14253;BME280;7210;51.502;10.722;2023-04-01T07:17:58;97641.97;;;10.76;100.00
14253;BME280;7210;51.502;10.722;2023-04-01T07:20:32;97640.41;;;10.75;100.00
14253;BME280;7210;51.502;10.722;2023-04-01T07:23:08;97638.28;;;10.72;100.00
14253;BME280;7210;51.502;10.722;2023-04-01T07:26:15;97646.44;;;10.76;100.00
14253;BME280;7210;51.502;10.722;2023-04-01T07:29:05;97651.00;;;10.70;100.00
14253;BME280;7210;51.502;10.722;2023-04-01T07:32:09;97653.63;;;10.70;100.00
14253;BME280;7210;51.502;10.722;2023-04-01T07:34:55;97662.88;;;10.73;100.00
14253;BME280;7210;51.502;10.722;2023-04-01T07:37:36;97669.72;;;10.74;100.00
14253;BME280;7210;51.502;10.722;2023-04-01T07:40:32;97673.94;;;10.75;100.00
14253;BME280;7210;51.502;10.722;2023-04-01T07:43:21;97679.22;;;10.80;100.00
14253;BME280;7210;51.502;10.722;2023-04-01T07:46:11;97690.03;;;10.83;100.00
14253;BME280;7210;51.502;10.722;2023-04-01T07:48:51;97706.38;;;10.90;100.00
14253;BME280;7210;51.502;10.722;2023-04-01T07:51:27;97691.59;;;10.84;100.00
14253;BME280;7210;51.502;10.722;2023-04-01T07:54:07;97709.84;;;10.86;100.00
14253;BME280;7210;51.502;10.722;2023-04-01T07:56:45;97702.19;;;10.84;100.00
14253;BME280;7210;51.502;10.722;2023-04-01T07:59:33;97711.13;;;10.88;100.00
14253;BME280;7210;51.502;10.722;2023-04-01T08:02:33;97697.66;;;10.85;100.00
14253;BME280;7210;51.502;10.722;2023-04-01T08:05:16;97706.66;;;10.84;100.00
14253;BME280;7210;51.502;10.722;2023-04-01T08:08:06;97714.56;;;10.89;100.00
14253;BME280;7210;51.502;10.722;2023-04-01T08:11:03;97715.38;;;10.89;100.00
14253;BME280;7210;51.502;10.722;2023-04-01T08:14:03;97715.91;;;10.86;100.00
14253;BME280;7210;51.502;10.722;2023-04-01T08:17:02;97718.00;;;10.89;100.00
14253;BME280;7210;51.502;10.722;2023-04-01T08:19:56;97741.66;;;11.09;100.00
14253;BME280;7210;51.502;10.722;2023-04-01T08:22:30;97744.53;;;11.13;100.00
14253;BME280;7210;51.502;10.722;2023-04-01T08:25:11;97744.78;;;11.16;100.00
14253;BME280;7210;51.502;10.722;2023-04-01T08:27:53;97757.69;;;11.22;100.00
14253;BME280;7210;51.502;10.722;2023-04-01T08:30:25;97747.44;;;11.16;99.32
14253;BME280;7210;51.502;10.722;2023-04-01T08:32:57;97741.66;;;11.09;99.23
14253;BME280;7210;51.502;10.722;2023-04-01T08:35:31;97764.28;;;11.25;98.92
14253;BME280;7210;51.502;10.722;2023-04-01T08:38:10;97761.13;;;11.28;98.98
14253;BME280;7210;51.502;10.722;2023-04-01T08:40:59;97782.19;;;11.38;99.51
14253;BME280;7210;51.502;10.722;2023-04-01T08:47:39;97792.16;;;11.51;98.33
14253;BME280;7210;51.502;10.722;2023-04-01T08:51:03;97805.84;;;11.63;98.90
14253;BME280;7210;51.502;10.722;2023-04-01T08:53:58;97816.31;;;11.78;98.49
14253;BME280;7210;51.502;10.722;2023-04-01T08:56:36;97825.19;;;11.92;97.85
14253;BME280;7210;51.502;10.722;2023-04-01T08:59:32;97814.25;;;11.98;96.94
14253;BME280;7210;51.502;10.722;2023-04-01T09:02:51;97797.69;;;11.88;96.87
14253;BME280;7210;51.502;10.722;2023-04-01T09:05:54;97832.69;;;12.08;96.75
14253;BME280;7210;51.502;10.722;2023-04-01T09:08:48;97819.75;;;12.07;95.93
14253;BME280;7210;51.502;10.722;2023-04-01T09:11:36;97807.53;;;12.11;95.16
14253;BME280;7210;51.502;10.722;2023-04-01T09:15:12;97801.28;;;11.97;94.72
14253;BME280;7210;51.502;10.722;2023-04-01T09:18:24;97849.91;;;12.11;91.79
14253;BME280;7210;51.502;10.722;2023-04-01T09:24:33;97871.53;;;12.23;95.84
14253;BME280;7210;51.502;10.722;2023-04-01T09:27:25;97868.31;;;12.26;94.96
14253;BME280;7210;51.502;10.722;2023-04-01T09:30:48;97880.72;;;12.30;95.03
14253;BME280;7210;51.502;10.722;2023-04-01T09:34:06;97854.66;;;12.14;94.45
14253;BME280;7210;51.502;10.722;2023-04-01T09:37:20;97871.56;;;12.18;94.38
14253;BME280;7210;51.502;10.722;2023-04-01T09:40:16;97893.22;;;12.25;94.45
14253;BME280;7210;51.502;10.722;2023-04-01T09:46:18;97905.00;;;12.14;94.70
14253;BME280;7210;51.502;10.722;2023-04-01T09:49:50;97918.94;;;12.24;94.23
14253;BME280;7210;51.502;10.722;2023-04-01T09:52:32;97920.19;;;12.32;94.07
14253;BME280;7210;51.502;10.722;2023-04-01T09:55:46;97925.47;;;12.37;93.74
14253;BME280;7210;51.502;10.722;2023-04-01T09:58:58;97910.72;;;12.26;92.99
14253;BME280;7210;51.502;10.722;2023-04-01T10:09:42;97972.09;;;12.38;94.11
14253;BME280;7210;51.502;10.722;2023-04-01T10:12:59;97988.41;;;12.50;94.14
14253;BME280;7210;51.502;10.722;2023-04-01T10:20:01;97952.38;;;12.49;92.34
14253;BME280;7210;51.502;10.722;2023-04-01T10:23:11;97959.72;;;12.57;91.97
14253;BME280;7210;51.502;10.722;2023-04-01T10:26:24;97957.56;;;12.59;91.87
14253;BME280;7210;51.502;10.722;2023-04-01T10:33:37;97997.44;;;12.77;92.30
14253;BME280;7210;51.502;10.722;2023-04-01T10:37:00;97995.50;;;12.88;91.60
14253;BME280;7210;51.502;10.722;2023-04-01T10:48:22;97976.19;;;12.54;90.79
14253;BME280;7210;51.502;10.722;2023-04-01T11:31:55;98017.41;;;13.27;87.36
14253;BME280;7210;51.502;10.722;2023-04-01T11:34:54;98000.56;;;13.13;87.57
14253;BME280;7210;51.502;10.722;2023-04-01T11:37:37;98015.50;;;13.04;87.82
14253;BME280;7210;51.502;10.722;2023-04-01T11:40:37;98002.44;;;12.84;87.78
14253;BME280;7210;51.502;10.722;2023-04-01T11:44:04;98069.72;;;12.93;89.08
14253;BME280;7210;51.502;10.722;2023-04-01T11:47:15;98029.94;;;12.64;88.69
14253;BME280;7210;51.502;10.722;2023-04-01T11:50:10;98069.97;;;12.63;89.05
14253;BME280;7210;51.502;10.722;2023-04-01T11:53:15;98111.78;;;12.76;89.93
14253;BME280;7210;51.502;10.722;2023-04-01T11:56:07;98129.19;;;12.87;90.04
14253;BME280;7210;51.502;10.722;2023-04-01T11:59:08;98122.78;;;12.93;89.94
14253;BME280;7210;51.502;10.722;2023-04-01T12:01:59;98142.56;;;13.10;90.21
14253;BME280;7210;51.502;10.722;2023-04-01T12:04:58;98127.75;;;13.04;89.69
14253;BME280;7210;51.502;10.722;2023-04-01T12:07:53;98122.69;;;13.08;89.58
14253;BME280;7210;51.502;10.722;2023-04-01T12:10:33;98135.84;;;13.18;89.20
14253;BME280;7210;51.502;10.722;2023-04-01T12:13:16;98095.06;;;13.09;88.70
14253;BME280;7210;51.502;10.722;2023-04-01T12:16:04;98138.94;;;13.30;89.16
14253;BME280;7210;51.502;10.722;2023-04-01T12:18:42;98122.44;;;13.33;88.38
14253;BME280;7210;51.502;10.722;2023-04-01T12:21:25;98095.94;;;13.28;88.03
14253;BME280;7210;51.502;10.722;2023-04-01T12:24:45;98088.31;;;13.21;87.60
14253;BME280;7210;51.502;10.722;2023-04-01T12:27:34;98065.28;;;13.17;86.99
14253;BME280;7210;51.502;10.722;2023-04-01T12:30:27;98100.22;;;13.29;87.06
14253;BME280;7210;51.502;10.722;2023-04-01T12:33:34;98114.16;;;13.39;87.31
14253;BME280;7210;51.502;10.722;2023-04-01T12:36:26;98108.22;;;13.47;86.94
14253;BME280;7210;51.502;10.722;2023-04-01T12:39:29;98152.31;;;13.72;87.30
14253;BME280;7210;51.502;10.722;2023-04-01T12:42:14;98109.31;;;13.70;86.26
14253;BME280;7210;51.502;10.722;2023-04-01T12:45:04;98099.19;;;13.72;85.74
14253;BME280;7210;51.502;10.722;2023-04-01T13:01:15;98107.97;;;12.87;87.37
14253;BME280;7210;51.502;10.722;2023-04-01T13:07:11;98193.94;;;12.32;90.96
14253;BME280;7210;51.502;10.722;2023-04-01T13:09:59;98224.94;;;12.32;92.43
14253;BME280;7210;51.502;10.722;2023-04-01T13:12:50;98250.63;;;12.36;93.29
14253;BME280;7210;51.502;10.722;2023-04-01T13:15:33;98252.22;;;12.37;93.50
14253;BME280;7210;51.502;10.722;2023-04-01T13:18:22;98277.78;;;12.72;94.05
14253;BME280;7210;51.502;10.722;2023-04-01T13:21:08;98285.06;;;13.05;93.54
14253;BME280;7210;51.502;10.722;2023-04-01T13:23:56;98250.22;;;13.21;92.47
14253;BME280;7210;51.502;10.722;2023-04-01T13:26:39;98240.78;;;13.39;91.51
14253;BME280;7210;51.502;10.722;2023-04-01T13:29:15;98248.50;;;13.69;91.08
14253;BME280;7210;51.502;10.722;2023-04-01T13:34:59;98163.97;;;13.76;85.32
14253;BME280;7210;51.502;10.722;2023-04-01T13:38:50;98137.69;;;13.74;87.32
14253;BME280;7210;51.502;10.722;2023-04-01T13:41:38;98112.09;;;13.60;86.86
14253;BME280;7210;51.502;10.722;2023-04-01T13:44:19;98115.34;;;13.52;87.14
14253;BME280;7210;51.502;10.722;2023-04-01T13:47:12;98091.81;;;13.17;87.31
14253;BME280;7210;51.502;10.722;2023-04-01T13:50:17;98109.03;;;12.86;88.68
14253;BME280;7210;51.502;10.722;2023-04-01T13:56:28;98196.50;;;12.52;92.12
14253;BME280;7210;51.502;10.722;2023-04-01T13:59:29;98211.19;;;12.25;93.45
14253;BME280;7210;51.502;10.722;2023-04-01T14:02:29;98263.41;;;12.24;95.34
14253;BME280;7210;51.502;10.722;2023-04-01T14:08:24;98290.94;;;12.28;96.96
14253;BME280;7210;51.502;10.722;2023-04-01T14:11:09;98284.88;;;12.23;97.09
14253;BME280;7210;51.502;10.722;2023-04-01T14:13:54;98263.69;;;12.18;97.09
14253;BME280;7210;51.502;10.722;2023-04-01T14:17:06;98269.50;;;12.20;97.20
14253;BME280;7210;51.502;10.722;2023-04-01T14:19:58;98264.22;;;12.15;97.14
14253;BME280;7210;51.502;10.722;2023-04-01T14:22:39;98253.63;;;12.15;97.01
14253;BME280;7210;51.502;10.722;2023-04-01T14:25:36;98247.53;;;12.14;96.84
14253;BME280;7210;51.502;10.722;2023-04-01T14:31:27;98260.22;;;12.22;97.91
14253;BME280;7210;51.502;10.722;2023-04-01T14:34:12;98258.13;;;12.24;98.18
14253;BME280;7210;51.502;10.722;2023-04-01T14:36:59;98262.59;;;12.24;98.52
14253;BME280;7210;51.502;10.722;2023-04-01T14:43:14;98223.94;;;12.18;98.19
14253;BME280;7210;51.502;10.722;2023-04-01T14:46:18;98234.78;;;12.26;98.26
14253;BME280;7210;51.502;10.722;2023-04-01T14:48:54;98228.72;;;12.21;98.35
14253;BME280;7210;51.502;10.722;2023-04-01T14:51:31;98233.72;;;12.22;98.33
14253;BME280;7210;51.502;10.722;2023-04-01T14:54:06;98230.31;;;12.17;98.68
14253;BME280;7210;51.502;10.722;2023-04-01T14:56:41;98219.19;;;12.15;98.52
14253;BME280;7210;51.502;10.722;2023-04-01T14:59:14;98216.81;;;12.08;98.75
14253;BME280;7210;51.502;10.722;2023-04-01T15:01:57;98231.09;;;12.17;98.70
14253;BME280;7210;51.502;10.722;2023-04-01T15:04:53;98231.09;;;12.17;98.87
14253;BME280;7210;51.502;10.722;2023-04-01T15:07:53;98220.50;;;12.12;98.73
14253;BME280;7210;51.502;10.722;2023-04-01T15:14:06;98213.94;;;12.00;98.94
14253;BME280;7210;51.502;10.722;2023-04-01T15:16:51;98220.56;;;11.97;99.42
14253;BME280;7210;51.502;10.722;2023-04-01T15:19:40;98235.13;;;12.00;100.00
14253;BME280;7210;51.502;10.722;2023-04-01T15:22:42;98237.25;;;11.98;100.00
14253;BME280;7210;51.502;10.722;2023-04-01T15:25:50;98244.13;;;11.99;100.00
14253;BME280;7210;51.502;10.722;2023-04-01T15:28:33;98251.00;;;12.00;100.00
14253;BME280;7210;51.502;10.722;2023-04-01T15:31:13;98236.19;;;11.94;100.00
14253;BME280;7210;51.502;10.722;2023-04-01T15:34:09;98237.25;;;11.88;100.00
14253;BME280;7210;51.502;10.722;2023-04-01T15:36:51;98233.06;;;11.77;100.00
14253;BME280;7210;51.502;10.722;2023-04-01T15:39:35;98233.06;;;11.62;100.00
14253;BME280;7210;51.502;10.722;2023-04-01T15:42:28;98244.69;;;11.46;100.00
14253;BME280;7210;51.502;10.722;2023-04-01T15:45:17;98248.16;;;11.31;100.00
14253;BME280;7210;51.502;10.722;2023-04-01T15:48:02;98251.81;;;11.20;100.00
14253;BME280;7210;51.502;10.722;2023-04-01T15:51:01;98262.66;;;11.09;100.00
14253;BME280;7210;51.502;10.722;2023-04-01T15:54:20;98265.00;;;10.96;100.00
14253;BME280;7210;51.502;10.722;2023-04-01T15:57:13;98263.66;;;10.88;100.00
14253;BME280;7210;51.502;10.722;2023-04-01T16:00:06;98262.34;;;10.81;100.00
14253;BME280;7210;51.502;10.722;2023-04-01T16:02:48;98265.78;;;10.81;100.00
14253;BME280;7210;51.502;10.722;2023-04-01T16:05:33;98269.75;;;10.79;100.00
14253;BME280;7210;51.502;10.722;2023-04-01T16:08:36;98278.72;;;10.78;100.00
14253;BME280;7210;51.502;10.722;2023-04-01T16:11:25;98273.41;;;10.73;100.00
14253;BME280;7210;51.502;10.722;2023-04-01T16:14:12;98277.34;;;10.70;100.00
14253;BME280;7210;51.502;10.722;2023-04-01T16:17:14;98276.31;;;10.66;100.00
14253;BME280;7210;51.502;10.722;2023-04-01T16:19:53;98281.59;;;10.66;100.00
14253;BME280;7210;51.502;10.722;2023-04-01T16:22:28;98277.34;;;10.65;100.00